Time;durP1;ratioP1;P1;durP2;ratioP2;P2;SDS_P1;SDS_P2;PMS_P1;PMS_P2;Temp;Humidity;BMP_temperature;BMP_pressure;BME280_temperature;BME280_humidity;BME280_pressure;Samples;Min_cycle;Max_cycle;Signal;HPM_P1;HPM_P2
2021/01/05 00:01:29;;;;;;;0.90;0.73;;;15.00;54.30;;;;;;4994770;28;20065;-56
2021/01/05 00:03:55;;;;;;;1.00;0.50;;;15.00;54.30;;;;;;4994600;28;20109;-57
2021/01/05 00:06:21;;;;;;;1.75;0.75;;;15.00;54.50;;;;;;4994441;28;20054;-58
2021/01/05 00:08:47;;;;;;;1.02;0.50;;;15.00;54.40;;;;;;4994487;28;20030;-57
2021/01/05 00:11:12;;;;;;;0.40;0.30;;;14.90;54.40;;;;;;4994693;28;20014;-57
2021/01/05 00:13:38;;;;;;;0.70;0.50;;;14.90;54.40;;;;;;4976966;28;20026;-58
2021/01/05 00:16:04;;;;;;;0.55;0.40;;;14.90;54.50;;;;;;4994478;28;20026;-57
2021/01/05 00:18:29;;;;;;;0.65;0.40;;;14.90;54.50;;;;;;4994395;28;20034;-57
2021/01/05 00:20:55;;;;;;;0.40;0.40;;;14.90;54.60;;;;;;4994300;28;20022;-57
2021/01/05 00:23:21;;;;;;;0.32;0.30;;;14.90;54.60;;;;;;4976934;28;20109;-56
2021/01/05 00:25:46;;;;;;;2.78;0.43;;;14.80;54.50;;;;;;4994241;28;20034;-57
2021/01/05 00:28:12;;;;;;;0.95;0.40;;;14.80;54.60;;;;;;4994133;28;20125;-56
2021/01/05 00:30:39;;;;;;;0.85;0.57;;;14.80;54.60;;;;;;4994228;28;20124;-58
2021/01/05 00:33:05;;;;;;;0.43;0.30;;;14.80;54.60;;;;;;4976646;28;20117;-57
2021/01/05 00:35:37;;;;;;;0.55;0.30;;;14.80;54.60;;;;;;4994151;28;20026;-57
2021/01/05 00:38:08;;;;;;;0.65;0.50;;;14.80;54.70;;;;;;4976767;28;20539;-55
2021/01/05 00:40:33;;;;;;;0.47;0.32;;;14.70;54.60;;;;;;4994121;28;20065;-56
2021/01/05 00:42:59;;;;;;;2.15;0.50;;;14.70;54.60;;;;;;4994031;28;20462;-56
2021/01/05 00:45:29;;;;;;;0.40;0.32;;;14.60;54.60;;;;;;4993936;28;20031;-56
2021/01/05 00:47:54;;;;;;;0.43;0.43;;;14.70;54.70;;;;;;4993908;28;20111;-58
2021/01/05 00:50:20;;;;;;;0.68;0.60;;;14.70;54.70;;;;;;4976282;28;20492;-55
2021/01/05 00:52:46;;;;;;;0.65;0.43;;;14.70;54.80;;;;;;4976323;28;20121;-55
2021/01/05 00:55:13;;;;;;;0.68;0.50;;;14.70;54.80;;;;;;4993698;28;20027;-56
2021/01/05 00:57:39;;;;;;;0.98;0.60;;;14.70;54.90;;;;;;4993900;28;20037;-56
2021/01/05 01:00:08;;;;;;;1.15;0.38;;;14.60;54.80;;;;;;4993580;28;20125;-56
2021/01/05 01:02:34;;;;;;;1.27;0.50;;;14.60;54.80;;;;;;4993610;28;20030;-55
2021/01/05 01:04:59;;;;;;;0.32;0.30;;;14.60;54.80;;;;;;4993516;28;20026;-56
2021/01/05 01:07:25;;;;;;;0.60;0.40;;;14.60;54.90;;;;;;4994378;28;20489;-56
2021/01/05 01:09:50;;;;;;;0.57;0.40;;;14.60;54.90;;;;;;4993375;28;20023;-55
2021/01/05 01:12:23;;;;;;;1.10;0.55;;;14.60;55.00;;;;;;4993386;28;20049;-55
2021/01/05 01:14:56;;;;;;;0.40;0.40;;;14.60;55.00;;;;;;4993294;28;20026;-54
2021/01/05 01:17:23;;;;;;;0.50;0.50;;;14.50;54.90;;;;;;4992858;28;20053;-63
2021/01/05 01:19:49;;;;;;;0.68;0.40;;;14.50;54.90;;;;;;4993198;28;20026;-57
2021/01/05 01:22:20;;;;;;;0.40;0.30;;;14.50;54.90;;;;;;4993156;28;20026;-56
2021/01/05 01:24:47;;;;;;;1.73;0.47;;;14.50;55.00;;;;;;4993153;28;20022;-56
2021/01/05 01:27:12;;;;;;;0.93;0.30;;;14.50;55.00;;;;;;4975572;28;20382;-58
2021/01/05 01:29:38;;;;;;;0.20;0.20;;;14.50;55.00;;;;;;4975642;28;20018;-55
2021/01/05 01:32:04;;;;;;;0.50;0.38;;;14.50;55.00;;;;;;4992980;28;20022;-55
2021/01/05 01:34:29;;;;;;;0.52;0.40;;;14.50;55.10;;;;;;4975446;28;20022;-57
2021/01/05 01:37:00;;;;;;;0.80;0.50;;;14.40;55.00;;;;;;4992825;28;20026;-57
2021/01/05 01:39:27;;;;;;;0.52;0.45;;;14.40;55.10;;;;;;4992910;28;20037;-58
2021/01/05 01:41:54;;;;;;;0.77;0.47;;;14.40;55.10;;;;;;4992928;28;20033;-57
2021/01/05 01:44:28;;;;;;;0.50;0.50;;;14.30;55.10;;;;;;4975325;28;20113;-58
2021/01/05 01:46:57;;;;;;;0.80;0.43;;;14.40;55.10;;;;;;4992662;28;20381;-58
2021/01/05 01:49:22;;;;;;;0.50;0.50;;;14.40;55.10;;;;;;4975271;28;20616;-56
2021/01/05 01:51:50;;;;;;;0.60;0.50;;;14.40;55.10;;;;;;4992680;28;20034;-58
2021/01/05 01:54:53;;;;;;;0.47;0.43;;;14.40;55.10;;;;;;4975302;28;20057;-57
2021/01/05 01:57:46;;;;;;;0.60;0.32;;;14.40;55.20;;;;;;4975165;28;20030;-57
2021/01/05 02:00:26;;;;;;;0.50;0.45;;;14.30;55.10;;;;;;4992672;28;20065;-56
2021/01/05 02:03:16;;;;;;;1.53;0.50;;;14.30;55.10;;;;;;4975214;28;20023;-58
2021/01/05 02:05:48;;;;;;;;;;;14.30;55.10;;;;;;4994069;28;20328;-57
2021/01/05 02:08:32;;;;;;;0.50;0.50;;;14.30;55.20;;;;;;4975027;28;19921;-57
2021/01/05 02:11:30;;;;;;;0.63;0.40;;;14.20;55.10;;;;;;4975085;28;20121;-56
2021/01/05 02:14:25;;;;;;;1.98;0.50;;;14.30;55.20;;;;;;4992495;28;20027;-57
2021/01/05 02:16:53;;;;;;;0.40;0.40;;;14.30;55.20;;;;;;4992441;28;20037;-56
2021/01/05 02:19:52;;;;;;;0.50;0.50;;;14.20;55.20;;;;;;4992430;28;20085;-57
2021/01/05 02:22:41;;;;;;;0.38;0.30;;;14.30;55.20;;;;;;4992511;28;20030;-57
2021/01/05 02:25:17;;;;;;;1.30;0.82;;;14.20;55.30;;;;;;4974972;28;20472;-57
2021/01/05 02:27:51;;;;;;;1.08;0.50;;;14.20;55.30;;;;;;4992513;28;20070;-57
2021/01/05 02:30:22;;;;;;;0.70;0.70;;;14.20;56.00;;;;;;4978953;28;20057;-57
2021/01/05 02:33:09;;;;;;;0.63;0.43;;;14.20;55.40;;;;;;4996456;28;20026;-57
2021/01/05 02:35:54;;;;;;;0.88;0.40;;;14.20;55.40;;;;;;4996349;28;20022;-56
2021/01/05 02:39:04;;;;;;;0.40;0.40;;;14.10;55.30;;;;;;4996420;28;20034;-55
2021/01/05 02:42:04;;;;;;;0.75;0.40;;;14.10;55.40;;;;;;4971423;28;20045;-57
2021/01/05 02:44:52;;;;;;;1.10;0.43;;;14.10;55.40;;;;;;4944710;28;20050;-56
2021/01/05 02:47:41;;;;;;;0.40;0.40;;;14.10;55.40;;;;;;4996054;28;20046;-57
2021/01/05 02:50:36;;;;;;;0.50;0.50;;;14.10;55.40;;;;;;4978529;28;20506;-57
2021/01/05 02:53:21;;;;;;;1.08;0.50;;;14.10;55.40;;;;;;4996117;28;20052;-56
2021/01/05 02:56:39;;;;;;;0.82;0.40;;;14.10;56.20;;;;;;4995924;28;20097;-55
2021/01/05 02:59:39;;;;;;;0.63;0.63;;;14.10;55.50;;;;;;4995813;28;20034;-57
2021/01/05 03:02:33;;;;;;;0.60;0.40;;;14.00;55.40;;;;;;4995876;28;20045;-57
2021/01/05 03:04:59;;;;;;;0.47;0.43;;;14.00;55.50;;;;;;4995822;28;20362;-57
2021/01/05 03:07:28;;;;;;;0.65;0.50;;;14.00;55.50;;;;;;4996686;28;20053;-57
2021/01/05 03:10:28;;;;;;;0.82;0.50;;;14.00;55.40;;;;;;4995611;28;20022;-57
2021/01/05 03:12:59;;;;;;;0.60;0.40;;;14.00;56.10;;;;;;4995568;28;20385;-58
2021/01/05 03:15:43;;;;;;;0.30;0.30;;;14.00;55.50;;;;;;4995849;28;20365;-57
2021/01/05 03:18:19;;;;;;;0.77;0.40;;;14.00;55.50;;;;;;4995568;28;20037;-57
2021/01/05 03:20:54;;;;;;;0.50;0.50;;;14.00;55.50;;;;;;4995593;28;20023;-57
2021/01/05 03:23:20;;;;;;;0.40;0.40;;;14.00;55.50;;;;;;4978145;28;20026;-57
2021/01/05 03:25:48;;;;;;;0.57;0.43;;;14.00;55.60;;;;;;4978008;28;20023;-57
2021/01/05 03:28:20;;;;;;;0.50;0.40;;;13.90;55.50;;;;;;4995368;28;20042;-56
2021/01/05 03:31:02;;;;;;;0.40;0.40;;;13.90;55.50;;;;;;4995481;28;20018;-56
2021/01/05 03:33:28;;;;;;;0.57;0.50;;;13.90;55.50;;;;;;4995311;28;20030;-57
2021/01/05 03:35:54;;;;;;;1.02;0.40;;;13.90;55.50;;;;;;4977829;28;20507;-57
2021/01/05 03:38:19;;;;;;;0.60;0.60;;;13.90;55.60;;;;;;4995282;28;20022;-57
2021/01/05 03:40:45;;;;;;;0.40;0.40;;;13.90;55.50;;;;;;4994983;28;20130;-56
2021/01/05 03:43:11;;;;;;;0.43;0.30;;;13.90;55.50;;;;;;4977671;28;20025;-57
2021/01/05 03:45:36;;;;;;;0.50;0.40;;;13.90;55.50;;;;;;4994972;28;20104;-57
2021/01/05 03:48:02;;;;;;;0.82;0.50;;;13.90;55.60;;;;;;4995012;28;20519;-57
2021/01/05 03:50:27;;;;;;;0.50;0.50;;;13.80;55.50;;;;;;4994897;28;20049;-57
2021/01/05 03:52:53;;;;;;;1.35;0.45;;;13.80;55.60;;;;;;4994957;28;20030;-57
2021/01/05 03:55:19;;;;;;;0.55;0.40;;;13.80;55.60;;;;;;4977476;28;20029;-57
2021/01/05 03:57:45;;;;;;;0.40;0.40;;;13.80;55.60;;;;;;4994843;28;20465;-57
2021/01/05 04:00:19;;;;;;;0.80;0.65;;;13.80;55.50;;;;;;4994658;28;20057;-57
2021/01/05 04:02:45;;;;;;;0.65;0.50;;;13.80;55.50;;;;;;4995063;28;20030;-56
2021/01/05 04:05:13;;;;;;;0.50;0.50;;;13.80;55.50;;;;;;4994632;28;20033;-57
2021/01/05 04:07:39;;;;;;;0.35;0.30;;;13.80;55.60;;;;;;4995694;28;20086;-57
2021/01/05 04:10:05;;;;;;;0.70;0.50;;;13.80;55.70;;;;;;4994662;28;20046;-56
2021/01/05 04:12:31;;;;;;;0.70;0.50;;;13.80;55.70;;;;;;4977035;28;20367;-57
2021/01/05 04:14:57;;;;;;;0.40;0.40;;;13.80;55.70;;;;;;4994429;28;20598;-57
2021/01/05 04:17:22;;;;;;;0.50;0.50;;;13.70;55.70;;;;;;4994535;28;20373;-55
2021/01/05 04:19:48;;;;;;;0.40;0.40;;;13.70;55.70;;;;;;4994559;28;20031;-56
2021/01/05 04:22:13;;;;;;;0.50;0.50;;;13.70;55.70;;;;;;4994378;28;20194;-57
2021/01/05 04:24:39;;;;;;;0.35;0.35;;;13.70;55.80;;;;;;4976894;28;20018;-56
2021/01/05 04:27:05;;;;;;;0.65;0.45;;;13.70;55.80;;;;;;4994204;28;20030;-57
2021/01/05 04:29:30;;;;;;;0.50;0.50;;;13.70;55.80;;;;;;4994275;28;20503;-56
2021/01/05 04:31:56;;;;;;;0.32;0.30;;;13.70;55.90;;;;;;4976776;28;20018;-57
2021/01/05 04:34:21;;;;;;;0.38;0.35;;;13.70;55.80;;;;;;4994120;28;20594;-57
2021/01/05 04:36:47;;;;;;;1.02;0.45;;;13.70;55.80;;;;;;4994111;28;20057;-57
2021/01/05 04:39:13;;;;;;;0.43;0.32;;;13.70;56.20;;;;;;4994016;28;20420;-58
2021/01/05 04:41:50;;;;;;;0.52;0.40;;;13.80;56.10;;;;;;4960456;28;20077;-57
2021/01/05 04:44:17;;;;;;;0.55;0.52;;;13.80;55.80;;;;;;4994009;28;20034;-55
2021/01/05 04:47:15;;;;;;;0.45;0.45;;;13.90;55.70;;;;;;4993811;28;20030;-57
2021/01/05 04:49:56;;;;;;;0.40;0.35;;;14.00;55.50;;;;;;4993952;28;20022;-57
2021/01/05 04:52:33;;;;;;;0.40;0.40;;;14.00;55.40;;;;;;4993223;28;20023;-56
2021/01/05 04:55:28;;;;;;;0.20;0.20;;;14.00;55.30;;;;;;4993848;28;20070;-57
2021/01/05 04:58:05;;;;;;;0.55;0.43;;;14.00;55.30;;;;;;4993719;28;20539;-57
2021/01/05 05:00:35;;;;;;;0.82;0.50;;;14.00;56.10;;;;;;4993698;28;20026;-57
2021/01/05 05:03:09;;;;;;;0.68;0.45;;;14.00;55.50;;;;;;4993653;28;20037;-56
2021/01/05 05:05:54;;;;;;;0.52;0.38;;;14.00;55.40;;;;;;4993596;28;20034;-57
2021/01/05 05:08:33;;;;;;;0.80;0.40;;;13.90;55.30;;;;;;4993118;28;20133;-57
2021/01/05 05:11:13;;;;;;;0.60;0.50;;;13.90;55.40;;;;;;4993456;28;20044;-56
2021/01/05 05:13:48;;;;;;;0.30;0.30;;;13.90;55.40;;;;;;4993561;28;20057;-57
2021/01/05 05:16:28;;;;;;;0.30;0.30;;;13.90;55.30;;;;;;4993421;28;20026;-56
2021/01/05 05:19:28;;;;;;;1.23;0.40;;;13.90;55.40;;;;;;4993330;28;20027;-57
2021/01/05 05:22:02;;;;;;;0.73;0.60;;;13.80;55.40;;;;;;4975957;28;20022;-57
2021/01/05 05:24:52;;;;;;;0.40;0.40;;;13.90;55.30;;;;;;4993290;28;20046;-57
2021/01/05 05:27:37;;;;;;;0.40;0.40;;;13.80;55.40;;;;;;4993196;28;20066;-56
2021/01/05 05:30:10;;;;;;;0.32;0.32;;;13.80;55.60;;;;;;4993241;28;20069;-56
2021/01/05 05:32:43;;;;;;;0.70;0.70;;;13.80;55.50;;;;;;4975734;28;20061;-56
2021/01/05 05:35:11;;;;;;;0.50;0.50;;;13.80;55.60;;;;;;4993118;28;20026;-58
2021/01/05 05:38:11;;;;;;;0.80;0.50;;;13.90;55.70;;;;;;4993030;28;20536;-57
2021/01/05 05:40:55;;;;;;;0.50;0.40;;;13.80;55.60;;;;;;4993340;28;20652;-57
2021/01/05 05:43:55;;;;;;;0.40;0.38;;;13.80;55.70;;;;;;4975476;28;20508;-57
2021/01/05 05:46:51;;;;;;;0.40;0.40;;;13.80;55.80;;;;;;4992825;28;20026;-57
2021/01/05 05:49:34;;;;;;;0.40;0.40;;;13.70;56.00;;;;;;4958102;28;20441;-56
2021/01/05 05:52:03;;;;;;;1.15;0.60;;;13.70;56.00;;;;;;4992946;28;20390;-56
2021/01/05 05:54:33;;;;;;;0.68;0.68;;;13.70;55.90;;;;;;4992924;28;20023;-57
2021/01/05 05:57:23;;;;;;;1.20;0.70;;;13.70;56.00;;;;;;4993187;28;20429;-56
2021/01/05 05:59:51;;;;;;;;;;;13.70;56.00;;;;;;4993243;28;20030;-57
2021/01/05 06:02:20;;;;;;;0.60;0.50;;;13.70;56.10;;;;;;4992841;28;19906;-57
2021/01/05 06:04:46;;;;;;;0.50;0.43;;;13.70;56.20;;;;;;4992808;28;20030;-57
2021/01/05 06:07:11;;;;;;;0.47;0.45;;;13.70;56.30;;;;;;4993790;28;20058;-57
2021/01/05 06:09:37;;;;;;;0.60;0.52;;;13.80;56.40;;;;;;4992740;28;20022;-57
2021/01/05 06:12:05;;;;;;;0.90;0.55;;;13.90;56.30;;;;;;4992675;28;20030;-56
2021/01/05 06:14:31;;;;;;;0.50;0.50;;;13.90;56.20;;;;;;4975318;28;20057;-57
2021/01/05 06:16:57;;;;;;;0.90;0.47;;;14.00;56.10;;;;;;4992710;28;20038;-56
2021/01/05 06:19:22;;;;;;;0.40;0.40;;;14.00;56.00;;;;;;4992630;28;20037;-57
2021/01/05 06:21:48;;;;;;;0.63;0.40;;;14.10;55.90;;;;;;4992468;28;20030;-56
2021/01/05 06:24:13;;;;;;;0.40;0.40;;;14.10;55.80;;;;;;4992444;28;20103;-57
2021/01/05 06:26:39;;;;;;;1.42;0.68;;;;;;;;;;4992255;28;20503;-57
2021/01/05 06:29:05;;;;;;;0.40;0.40;;;14.20;55.10;;;;;;4974873;28;20042;-57
2021/01/05 06:31:31;;;;;;;0.85;0.70;;;14.20;55.60;;;;;;4992146;28;20021;-57
2021/01/05 06:33:56;;;;;;;0.60;0.50;;;14.20;55.50;;;;;;4992223;28;20486;-56
2021/01/05 06:36:22;;;;;;;0.90;0.68;;;14.30;55.50;;;;;;4974835;28;20118;-55
2021/01/05 06:38:48;;;;;;;1.00;0.75;;;14.30;55.40;;;;;;4992303;28;20034;-55
2021/01/05 06:41:13;;;;;;;0.50;0.50;;;14.30;55.30;;;;;;4992302;28;20117;-56
2021/01/05 06:43:39;;;;;;;0.60;0.60;;;14.30;55.30;;;;;;4992244;28;20034;-56
2021/01/05 06:46:05;;;;;;;0.80;0.70;;;14.30;55.30;;;;;;4992111;28;20077;-56
2021/01/05 06:48:30;;;;;;;0.50;0.50;;;14.40;55.20;;;;;;4992093;28;20045;-55
2021/01/05 06:50:56;;;;;;;0.43;0.43;;;14.40;55.20;;;;;;4992357;28;20014;-54
2021/01/05 06:53:21;;;;;;;0.50;0.40;;;14.40;55.30;;;;;;4992014;28;20022;-56
2021/01/05 06:55:47;;;;;;;0.90;0.73;;;14.40;55.20;;;;;;4992005;28;20054;-55
2021/01/05 06:58:13;;;;;;;1.05;0.75;;;14.40;55.10;;;;;;4974387;28;20110;-56
2021/01/05 07:00:38;;;;;;;0.80;0.80;;;14.50;55.10;;;;;;4992079;28;20026;-56
2021/01/05 07:03:04;;;;;;;0.80;0.68;;;14.40;55.00;;;;;;4974471;28;20512;-55
2021/01/05 07:05:29;;;;;;;0.77;0.77;;;14.50;55.10;;;;;;4991751;28;20022;-55
2021/01/05 07:07:55;;;;;;;0.57;0.57;;;14.50;55.10;;;;;;4975497;28;20046;-55
2021/01/05 07:10:21;;;;;;;0.60;0.57;;;14.50;55.00;;;;;;4974470;28;20118;-55
2021/01/05 07:12:48;;;;;;;0.80;0.80;;;14.60;55.00;;;;;;4974491;28;20026;-55
2021/01/05 07:15:16;;;;;;;0.90;0.70;;;14.60;55.00;;;;;;4969030;28;20085;-55
2021/01/05 07:17:41;;;;;;;0.80;0.70;;;14.60;55.20;;;;;;4958755;28;20122;-55
2021/01/05 07:20:09;;;;;;;1.30;0.95;;;14.60;55.40;;;;;;4975916;28;20272;-53
2021/01/05 07:22:35;;;;;;;1.27;0.77;;;14.70;55.40;;;;;;4958626;28;20558;-53
2021/01/05 07:25:01;;;;;;;1.02;0.80;;;14.70;55.40;;;;;;4976023;28;20102;-57
2021/01/05 07:27:27;;;;;;;1.00;0.65;;;14.70;55.30;;;;;;4958259;28;20437;-56
2021/01/05 07:29:53;;;;;;;0.88;0.65;;;14.70;55.20;;;;;;4974799;28;20421;-55
2021/01/05 07:32:19;;;;;;;1.00;0.88;;;14.70;55.80;;;;;;4975404;28;20027;-55
2021/01/05 07:34:45;;;;;;;1.77;1.00;;;14.80;55.20;;;;;;4976139;28;20091;-55
2021/01/05 07:37:17;;;;;;;1.35;1.00;;;14.80;55.10;;;;;;4975784;28;20035;-55
2021/01/05 07:39:42;;;;;;;0.80;0.80;;;14.80;55.10;;;;;;4975770;28;20489;-56
2021/01/05 07:42:14;;;;;;;1.88;0.80;;;14.80;55.00;;;;;;4975738;28;20082;-55
2021/01/05 07:44:40;;;;;;;1.67;0.80;;;14.90;55.00;;;;;;4975537;28;20026;-55
2021/01/05 07:47:06;;;;;;;1.38;0.73;;;14.90;55.00;;;;;;4975492;28;20089;-55
2021/01/05 07:49:32;;;;;;;1.80;0.80;;;14.90;55.00;;;;;;4958198;28;20023;-55
2021/01/05 07:51:57;;;;;;;2.10;0.90;;;14.90;55.00;;;;;;4975468;28;20041;-55
2021/01/05 07:54:23;;;;;;;1.15;0.93;;;14.90;55.00;;;;;;4975694;28;20126;-55
2021/01/05 07:56:48;;;;;;;1.58;1.10;;;14.90;55.00;;;;;;4958002;28;20042;-53
2021/01/05 07:59:15;;;;;;;1.90;0.90;;;14.90;55.00;;;;;;4975306;28;20026;-55
2021/01/05 08:01:41;;;;;;;2.35;1.25;;;14.90;55.00;;;;;;4975293;28;20078;-55
2021/01/05 08:04:07;;;;;;;1.27;1.00;;;14.90;55.00;;;;;;4975160;28;20027;-55
2021/01/05 08:06:32;;;;;;;0.82;0.82;;;14.90;55.00;;;;;;4976419;28;20109;-55
2021/01/05 08:08:58;;;;;;;1.15;1.05;;;14.90;54.90;;;;;;4957769;28;20031;-49
2021/01/05 08:11:24;;;;;;;1.27;1.02;;;14.90;55.50;;;;;;4957440;28;20540;-54
2021/01/05 08:13:49;;;;;;;1.10;1.00;;;14.90;55.30;;;;;;4972528;28;20057;-51
2021/01/05 08:16:15;;;;;;;1.38;1.00;;;14.90;55.90;;;;;;4974558;28;20023;-53
2021/01/05 08:18:41;;;;;;;1.83;1.17;;;14.90;55.20;;;;;;4974919;28;20070;-52
2021/01/05 08:21:07;;;;;;;1.42;0.95;;;14.90;55.10;;;;;;4957531;28;20027;-53
2021/01/05 08:23:32;;;;;;;1.17;1.08;;;14.90;55.10;;;;;;4974830;28;20027;-52
2021/01/05 08:25:58;;;;;;;1.73;1.23;;;14.80;55.00;;;;;;4973742;28;20023;-53
2021/01/05 08:28:24;;;;;;;1.55;1.25;;;14.90;54.90;;;;;;4974662;28;20039;-53
2021/01/05 08:30:49;;;;;;;1.45;1.05;;;14.80;54.80;;;;;;4974725;28;20027;-51
2021/01/05 08:33:16;;;;;;;1.83;1.30;;;14.90;54.80;;;;;;4974506;28;20082;-50
2021/01/05 08:35:46;;;;;;;1.98;1.23;;;14.80;54.70;;;;;;4974543;28;20113;-52
2021/01/05 08:38:12;;;;;;;1.23;1.13;;;14.80;54.70;;;;;;4974602;28;20022;-52
2021/01/05 08:40:38;;;;;;;1.10;1.00;;;14.80;54.70;;;;;;4974401;28;20063;-53
2021/01/05 08:43:07;;;;;;;1.40;1.30;;;14.90;54.70;;;;;;4957308;28;20023;-53
2021/01/05 08:45:33;;;;;;;1.30;1.20;;;14.80;54.70;;;;;;4974462;28;20027;-49
2021/01/05 08:48:00;;;;;;;1.40;1.10;;;14.80;54.60;;;;;;4974267;28;20366;-49
2021/01/05 08:50:31;;;;;;;1.15;1.05;;;14.80;54.50;;;;;;4956960;28;20070;-49
2021/01/05 08:53:06;;;;;;;1.40;1.30;;;14.80;54.60;;;;;;4974209;28;20067;-52
2021/01/05 08:55:40;;;;;;;1.70;1.42;;;14.80;54.60;;;;;;4956830;28;20023;-49
2021/01/05 08:58:07;;;;;;;1.13;1.02;;;14.80;54.60;;;;;;4974204;28;20618;-50
2021/01/05 09:00:33;;;;;;;4.35;1.40;;;14.80;54.50;;;;;;4956513;28;20026;-49
2021/01/05 09:02:58;;;;;;;1.50;1.23;;;14.80;54.40;;;;;;4973640;28;20034;-50
2021/01/05 09:05:24;;;;;;;1.20;1.10;;;14.80;54.40;;;;;;4973947;28;20078;-50
2021/01/05 09:07:56;;;;;;;1.30;1.20;;;14.90;54.50;;;;;;4974766;28;20058;-52
2021/01/05 09:10:25;;;;;;;2.10;1.13;;;14.80;54.40;;;;;;4974008;28;20078;-49
2021/01/05 09:12:51;;;;;;;2.50;1.30;;;14.90;54.40;;;;;;4974000;28;20023;-52
2021/01/05 09:15:20;;;;;;;1.70;1.23;;;14.90;54.30;;;;;;4973803;28;20393;-51
2021/01/05 09:17:47;;;;;;;1.67;1.10;;;14.90;54.30;;;;;;4973811;28;20073;-51
2021/01/05 09:20:17;;;;;;;2.92;1.10;;;14.90;54.30;;;;;;4974288;28;20027;-52
2021/01/05 09:22:43;;;;;;;2.17;1.38;;;14.80;54.80;;;;;;4973862;28;20393;-53
2021/01/05 09:25:09;;;;;;;1.60;1.30;;;14.90;54.10;;;;;;4973683;28;20015;-49
2021/01/05 09:27:37;;;;;;;3.05;1.48;;;14.90;54.20;;;;;;4973812;28;20039;-51
2021/01/05 09:30:08;;;;;;;1.58;1.48;;;14.80;54.10;;;;;;4973238;28;20062;-51
2021/01/05 09:32:35;;;;;;;1.73;1.50;;;14.90;54.10;;;;;;4973475;28;20087;-52
2021/01/05 09:35:01;;;;;;;1.80;1.42;;;14.80;54.10;;;;;;4973470;28;20099;-52
2021/01/05 09:37:26;;;;;;;1.23;1.13;;;14.90;54.20;;;;;;4973246;28;20027;-52
2021/01/05 09:39:52;;;;;;;1.50;1.40;;;14.80;54.20;;;;;;4955953;28;20106;-52
2021/01/05 09:42:18;;;;;;;1.27;1.17;;;14.80;54.20;;;;;;4973546;28;20042;-52
2021/01/05 09:44:43;;;;;;;1.30;1.15;;;14.80;54.90;;;;;;4973167;28;20370;-54
2021/01/05 09:47:09;;;;;;;1.75;1.33;;;14.80;54.20;;;;;;4973128;28;20039;-53
2021/01/05 09:49:34;;;;;;;1.55;1.25;;;14.80;54.20;;;;;;4973348;28;20023;-53
2021/01/05 09:52:01;;;;;;;1.70;1.40;;;14.80;54.20;;;;;;4973295;28;20027;-54
2021/01/05 09:54:28;;;;;;;1.90;1.42;;;14.90;54.30;;;;;;4973556;28;20019;-53
2021/01/05 09:56:55;;;;;;;1.42;1.23;;;14.80;54.30;;;;;;4955966;28;20023;-54
2021/01/05 09:59:22;;;;;;;1.15;1.05;;;14.80;54.40;;;;;;4973200;28;20066;-53
2021/01/05 10:01:48;;;;;;;2.10;1.23;;;14.70;54.50;;;;;;4973642;28;20189;-55
2021/01/05 10:04:16;;;;;;;1.77;1.38;;;14.70;54.50;;;;;;4973072;28;20106;-54
2021/01/05 10:06:48;;;;;;;1.85;1.38;;;14.70;54.50;;;;;;4973555;28;20035;-52
2021/01/05 10:09:13;;;;;;;1.88;1.42;;;14.60;54.60;;;;;;4973087;28;20034;-51
2021/01/05 10:11:45;;;;;;;1.40;1.30;;;14.60;54.70;;;;;;4973028;28;20029;-54
2021/01/05 10:14:19;;;;;;;2.08;1.38;;;14.60;54.80;;;;;;4955668;28;20031;-53
2021/01/05 10:16:45;;;;;;;1.58;1.30;;;14.60;54.80;;;;;;4973265;28;20031;-53
2021/01/05 10:19:13;;;;;;;2.25;1.48;;;14.60;54.70;;;;;;4972982;28;20023;-51
2021/01/05 10:21:40;;;;;;;1.50;1.40;;;14.60;54.80;;;;;;4972868;28;20030;-54
2021/01/05 10:24:08;;;;;;;1.70;1.60;;;14.60;54.80;;;;;;4972861;28;20073;-53
2021/01/05 10:26:34;;;;;;;1.67;1.50;;;14.60;54.70;;;;;;4955386;28;20031;-53
2021/01/05 10:29:00;;;;;;;1.65;1.20;;;14.60;54.50;;;;;;4955408;28;20022;-54
2021/01/05 10:31:26;;;;;;;2.10;1.65;;;14.60;54.40;;;;;;4972845;28;20050;-50
2021/01/05 10:33:52;;;;;;;1.40;1.30;;;14.60;54.40;;;;;;4972867;28;20097;-49
2021/01/05 10:36:19;;;;;;;1.63;1.52;;;14.60;55.00;;;;;;4973305;28;20171;-49
2021/01/05 10:38:47;;;;;;;1.73;1.63;;;14.70;54.60;;;;;;4955381;28;20077;-50
2021/01/05 10:41:15;;;;;;;1.75;1.65;;;14.70;54.40;;;;;;4972736;28;20035;-50
2021/01/05 10:43:40;;;;;;;1.17;1.08;;;14.80;54.40;;;;;;4972931;28;20094;-52
2021/01/05 10:46:06;;;;;;;2.08;1.80;;;14.70;54.30;;;;;;4972706;28;20029;-50
2021/01/05 10:48:31;;;;;;;2.00;1.80;;;14.80;54.20;;;;;;4972627;28;20109;-51
2021/01/05 10:50:57;;;;;;;2.03;1.67;;;14.90;54.00;;;;;;4976422;28;20031;-50
2021/01/05 10:53:24;;;;;;;1.60;1.50;;;14.90;53.90;;;;;;4976516;28;20081;-51
2021/01/05 10:55:50;;;;;;;1.75;1.65;;;15.00;54.00;;;;;;4976640;28;20034;-51
2021/01/05 10:58:15;;;;;;;1.90;1.58;;;15.00;53.70;;;;;;4976370;28;20035;-50
2021/01/05 11:00:41;;;;;;;2.33;1.63;;;15.10;53.50;;;;;;4976396;28;20227;-49
2021/01/05 11:03:06;;;;;;;1.48;1.38;;;15.10;53.40;;;;;;4976068;28;20037;-52
2021/01/05 11:05:32;;;;;;;2.20;1.70;;;15.10;53.40;;;;;;4988042;28;20370;-48
2021/01/05 11:07:58;;;;;;;2.00;1.80;;;15.20;53.30;;;;;;4996342;28;20066;-49
2021/01/05 11:10:23;;;;;;;2.35;1.65;;;15.30;53.10;;;;;;4995332;28;20026;-49
2021/01/05 11:12:49;;;;;;;1.90;1.55;;;15.30;53.10;;;;;;4995499;28;20163;-49
2021/01/05 11:15:16;;;;;;;1.83;1.55;;;15.30;53.10;;;;;;4995484;28;20025;-51
2021/01/05 11:17:45;;;;;;;1.88;1.70;;;15.20;53.10;;;;;;4995471;28;20031;-49
2021/01/05 11:20:13;;;;;;;2.50;2.20;;;15.20;53.20;;;;;;4995793;28;20027;-51
2021/01/05 11:22:39;;;;;;;2.90;2.08;;;15.10;53.30;;;;;;4995349;28;20038;-49
2021/01/05 11:25:05;;;;;;;1.70;1.60;;;15.10;53.50;;;;;;4995157;28;20145;-48
2021/01/05 11:27:31;;;;;;;2.63;2.05;;;15.10;53.60;;;;;;4995014;28;20451;-49
2021/01/05 11:29:56;;;;;;;2.20;2.00;;;15.00;53.70;;;;;;4995127;28;20046;-49
2021/01/05 11:32:23;;;;;;;1.73;1.63;;;15.00;53.70;;;;;;4995542;28;20100;-50
2021/01/05 11:34:49;;;;;;;2.03;1.90;;;15.00;53.80;;;;;;4977149;28;20019;-50
2021/01/05 11:37:20;;;;;;;1.85;1.67;;;15.00;53.90;;;;;;4995230;28;20033;-49
2021/01/05 11:39:48;;;;;;;2.75;2.45;;;15.00;53.90;;;;;;4994879;28;20033;-53
2021/01/05 11:42:17;;;;;;;2.30;2.10;;;15.00;53.90;;;;;;4995487;28;20384;-53
2021/01/05 11:44:45;;;;;;;2.17;1.98;;;15.00;54.10;;;;;;4977587;28;20023;-53
2021/01/05 11:47:11;;;;;;;3.28;1.90;;;15.00;54.40;;;;;;4995117;28;20034;-52
2021/01/05 11:49:37;;;;;;;2.05;1.92;;;15.00;54.50;;;;;;4995090;28;20022;-54
2021/01/05 11:52:03;;;;;;;2.97;2.05;;;15.00;54.30;;;;;;4994890;28;20096;-54
2021/01/05 11:54:34;;;;;;;2.22;2.03;;;15.00;54.40;;;;;;4977596;28;20042;-53
2021/01/05 11:57:00;;;;;;;2.80;1.98;;;15.00;55.00;;;;;;4994774;28;20034;-53
2021/01/05 11:59:28;;;;;;;2.08;1.88;;;15.10;54.30;;;;;;4995155;28;20023;-53
2021/01/05 12:01:54;;;;;;;3.35;1.73;;;15.10;54.20;;;;;;4994957;28;20050;-53
2021/01/05 12:04:20;;;;;;;1.60;1.50;;;15.20;54.20;;;;;;4994746;28;20069;-51
2021/01/05 12:06:47;;;;;;;4.97;1.80;;;15.00;54.30;;;;;;4966279;28;20477;-53
2021/01/05 12:09:14;;;;;;;1.83;1.73;;;15.20;54.40;;;;;;4974990;28;20420;-50
2021/01/05 12:11:40;;;;;;;1.70;1.60;;;15.30;54.30;;;;;;4975258;28;20023;-51
2021/01/05 12:14:05;;;;;;;1.88;1.60;;;15.30;54.30;;;;;;4974960;28;20437;-52
2021/01/05 12:16:34;;;;;;;1.52;1.42;;;15.40;54.20;;;;;;4975198;28;20520;-53
2021/01/05 12:19:01;;;;;;;2.95;1.63;;;15.40;54.10;;;;;;4957779;28;20061;-54
2021/01/05 12:21:30;;;;;;;7.20;1.95;;;15.40;54.10;;;;;;4975452;28;20019;-51
2021/01/05 12:23:56;;;;;;;1.98;1.60;;;15.40;54.20;;;;;;4957631;28;20102;-50
2021/01/05 12:26:33;;;;;;;2.10;1.90;;;15.40;54.30;;;;;;4974999;28;20042;-53
2021/01/05 12:29:00;;;;;;;1.73;1.63;;;15.40;54.20;;;;;;4974851;28;20090;-52
2021/01/05 12:31:27;;;;;;;1.95;1.75;;;15.50;54.20;;;;;;4974971;28;20031;-53
2021/01/05 12:33:54;;;;;;;1.80;1.70;;;15.40;54.20;;;;;;4974857;28;20031;-54
2021/01/05 12:36:33;;;;;;;6.05;1.60;;;15.50;54.30;;;;;;4974979;28;20147;-53
2021/01/05 12:38:59;;;;;;;1.60;1.50;;;15.50;54.20;;;;;;4975052;28;20528;-52
2021/01/05 12:41:33;;;;;;;3.22;2.13;;;15.50;54.10;;;;;;4974740;28;20019;-50
2021/01/05 12:44:00;;;;;;;2.03;1.58;;;15.50;54.20;;;;;;4974714;28;20038;-53
2021/01/05 12:46:29;;;;;;;2.25;1.60;;;15.50;54.30;;;;;;4974910;28;20417;-52
2021/01/05 12:48:55;;;;;;;1.80;1.33;;;15.50;54.30;;;;;;4974836;28;20038;-52
2021/01/05 12:51:25;;;;;;;2.90;1.30;;;15.50;54.20;;;;;;4974630;28;20022;-53
2021/01/05 12:53:51;;;;;;;4.30;1.80;;;15.50;54.30;;;;;;4974566;28;20037;-53
2021/01/05 12:56:18;;;;;;;2.08;1.52;;;15.50;54.30;;;;;;4974332;28;20377;-54
2021/01/05 12:58:43;;;;;;;1.83;1.73;;;15.50;54.40;;;;;;4974412;28;20038;-53
2021/01/05 13:01:09;;;;;;;2.10;1.63;;;15.50;54.30;;;;;;4974318;28;20035;-51
2021/01/05 13:03:34;;;;;;;1.60;1.50;;;15.50;54.30;;;;;;4974403;28;20030;-54